Aérodrome :
LOGIN :

S'inscrire | Disclaimer

   EN    FR    IT 

 










Légende :    VFR   VFR Marginal   IFR   IFR Intensif   IFR Très Intensif
Visi : 
Plafond : 
>= 8 km
>= 3000ft
5 à 8 km
1000 à 3000 ft
1500m à 5 km
500 à 1000 ft
800 à 1500m
200 à 500 ft
< 800m
< 200 ft
Symboles :   Orages  Brouillard  Fortes neiges  Fortes précipitations  Vent > 20 kt
SIGMETs :   Divers  Orages  Givrage  Turbulence  Onde Orograph.  Cendres Volcan.






- Altitude de l'aérodrome : 436 ft
- Code IATA : ANG


LFBU - Angoulême Brie Champniers

DERNIER METAR :
  • 172030Z AUTO 23004KT 200V260 9999 FEW040/// SCT047/// ///TCU 07/05 Q1030 BECMG SCT030

METARs EXPIRÉS :
  • 172000Z AUTO 22003KT CAVOK 07/05 Q1030 NOSIG
  • 171930Z AUTO 23003KT 200V270 9999 SCT027/// SCT033/// BKN054/// ///TCU 07/05 Q1030 BECMG SCT030
  • 171900Z AUTO VRB03KT 9999 FEW031/// SCT039/// ///TCU 07/05 Q1029 BECMG SCT030
  • 171830Z AUTO 24006KT 210V270 9999 SCT029/// BKN034/// BKN044/// ///TCU 08/05 Q1029 BECMG SCT030
  • 171800Z AUTO 28009KT 9999 RA BKN035/// BKN044/// BKN098/// ///CB 10/05 Q1028 TEMPO NSW

TAF TAF LFBU
Valide du 17 à 18h jusqu'au 18 à 18h UTC


171700Z 1718/1818 24010KT 9999 SCT030
TEMPO 1718/1720 5000 -SHRA SCT020TCU
TEMPO 1723/1811 19005KT
TEMPO 1811/1818 3000 SHRA BKN015TCU



MET'MAP, la Météo Aéronautique d'un coup d'oeil ! - Copyright ORBIFLY Décembre 2007 - Disclaimer

ORBIFLY MET'MAP TEAM :

Programmation & Développement : Alexandra Zaïnal
Sur une idée originale de : Baudouin d'Aumeries
Assistance à la programmation : Marc-Olivier Méhu
Soutien technique & logistique : Manuel Goepfert

Contact : metmap@orbifly.com




SOURCES & CREDITS :

   NOAA